createdAt,value
2023-03-05T00:01:23.892Z,25.3
2023-03-05T00:07:01.336Z,26.3
2023-03-05T00:12:54.479Z,27
2023-03-05T00:18:46.076Z,26.7
2023-03-05T00:24:08.480Z,26.3
2023-03-05T00:29:47.877Z,26
2023-03-05T00:35:40.442Z,25.6
2023-03-05T00:41:34.272Z,25.3
2023-03-05T00:47:27.516Z,25
2023-03-05T00:53:19.857Z,26.7
2023-03-05T00:59:12.627Z,26.8
2023-03-05T01:05:06.115Z,26.4
2023-03-05T01:10:58.354Z,26.1
2023-03-05T01:16:35.567Z,25.8
2023-03-05T01:22:28.524Z,25.4
2023-03-05T01:28:05.079Z,24.8
2023-03-05T01:33:43.863Z,26.1
2023-03-05T01:39:22.107Z,26.8
2023-03-05T01:45:14.703Z,26.6
2023-03-05T01:50:52.748Z,26.3
2023-03-05T01:56:46.052Z,25.9
2023-03-05T02:02:39.046Z,25.6
2023-03-05T02:08:16.049Z,24.7
2023-03-05T02:13:53.266Z,25.8
2023-03-05T02:19:29.773Z,26.7
2023-03-05T02:25:22.389Z,26.6
2023-03-05T02:30:59.211Z,25.1
2023-03-05T02:36:36.230Z,24.8
2023-03-05T02:42:29.395Z,24.2
2023-03-05T02:48:21.585Z,23.9
2023-03-05T02:54:14.648Z,24.7
2023-03-05T03:00:08.088Z,26.5
2023-03-05T03:06:01.673Z,26.6
2023-03-05T03:11:23.038Z,25.2
2023-03-05T03:17:01.153Z,24.8
2023-03-05T03:22:53.937Z,24.2
2023-03-05T03:28:31.010Z,23.8
2023-03-05T03:34:09.221Z,23.6
2023-03-05T03:39:46.036Z,23.9
2023-03-05T03:45:38.050Z,24.9
2023-03-05T03:51:14.973Z,26.5
2023-03-05T03:57:06.695Z,26.6
2023-03-05T04:02:59.663Z,25.1
2023-03-05T04:08:51.349Z,24.8
2023-03-05T04:14:43.959Z,24
2023-03-05T04:20:21.847Z,23.8
2023-03-05T04:25:58.669Z,23.5
2023-03-05T04:31:51.396Z,24
2023-03-05T04:37:45.011Z,25.6
2023-03-05T04:43:37.079Z,26.6
2023-03-05T04:49:29.215Z,26.5
2023-03-05T04:55:21.618Z,24.9
2023-03-05T05:00:44.707Z,24.4
2023-03-05T05:06:21.951Z,23.9
2023-03-05T05:12:14.347Z,24.1
2023-03-05T05:18:07.636Z,25.1
2023-03-05T05:24:00.825Z,26.6
2023-03-05T05:29:53.244Z,26.6
2023-03-05T05:35:46.226Z,25.1
2023-03-05T05:41:39.170Z,24.7
2023-03-05T05:47:32.486Z,24
2023-03-05T05:53:25.984Z,23.8
2023-03-05T05:59:03.074Z,23.4
2023-03-05T06:04:58.166Z,23.9
2023-03-05T06:10:50.713Z,25.6
2023-03-05T06:16:45.089Z,26.6
2023-03-05T06:22:45.194Z,26.5
2023-03-05T06:28:37.596Z,24.8
2023-03-05T06:34:30.385Z,24.4
2023-03-05T06:40:23.032Z,23.9
2023-03-05T06:46:16.524Z,24.1
2023-03-05T06:51:53.979Z,25.1
2023-03-05T06:57:47.442Z,26.5
2023-03-05T07:03:40.734Z,26.6
2023-03-05T07:09:33.444Z,25.1
2023-03-05T07:15:28.529Z,24.7
2023-03-05T07:21:21.809Z,24
2023-03-05T07:27:14.717Z,23.7
2023-03-05T07:33:08.056Z,24.4
2023-03-05T07:39:01.076Z,26.3
2023-03-05T07:44:39.060Z,26.6
2023-03-05T07:50:31.912Z,26.3
2023-03-05T07:56:10.234Z,26
2023-03-05T08:02:04.473Z,25.8
2023-03-05T08:07:57.913Z,25.4
2023-03-05T08:13:51.006Z,24.1
2023-03-05T08:19:44.910Z,25.8
2023-03-05T08:25:22.188Z,26.5
2023-03-05T08:31:16.559Z,26.4
2023-03-05T08:37:10.782Z,26.1
2023-03-05T08:43:04.314Z,25.9
2023-03-05T08:48:57.601Z,25.6
2023-03-05T08:54:50.909Z,24.3
2023-03-05T09:00:43.126Z,25.7
2023-03-05T09:06:21.668Z,26.6
2023-03-05T09:12:14.110Z,26.6
2023-03-05T09:18:07.016Z,26.3
2023-03-05T09:24:00.716Z,26
2023-03-05T09:29:54.390Z,25.7
2023-03-05T09:35:48.039Z,24.9
2023-03-05T09:41:41.504Z,24.6
2023-03-05T09:47:34.873Z,26.4
2023-03-05T09:53:27.132Z,26.8
2023-03-05T09:59:19.457Z,26.4
2023-03-05T10:05:12.808Z,25.2
2023-03-05T10:11:04.633Z,25.6
2023-03-05T10:16:58.093Z,26.9
2023-03-05T10:22:20.700Z,26.7
2023-03-05T10:28:12.187Z,26.4
2023-03-05T10:34:06.772Z,24.9
2023-03-05T10:40:00.494Z,26.3
2023-03-05T10:45:53.102Z,26.9
2023-03-05T10:51:46.914Z,26.6
2023-03-05T10:57:24.528Z,26.3
2023-03-05T11:03:17.618Z,25
2023-03-05T11:09:13.024Z,26.8
2023-03-05T11:14:51.190Z,26.9
2023-03-05T11:20:46.077Z,26.6
2023-03-05T11:26:41.560Z,25.8
2023-03-05T11:32:41.619Z,25.6
2023-03-05T11:38:18.762Z,27
2023-03-05T11:44:13.624Z,26.9
2023-03-05T11:50:08.421Z,26.5
2023-03-05T11:56:01.905Z,25.1
2023-03-05T12:01:56.061Z,26.3
2023-03-05T12:07:36.184Z,27
2023-03-05T12:13:29.243Z,26.8
2023-03-05T12:19:22.789Z,26.5
2023-03-05T12:24:45.192Z,25.2
2023-03-05T12:30:41.067Z,26.8
2023-03-05T12:36:39.739Z,27.1
2023-03-05T12:42:51.818Z,26.8
2023-03-05T12:48:30.066Z,26.5
2023-03-05T12:54:08.141Z,25.3
2023-03-05T12:59:47.404Z,26.9
2023-03-05T13:05:25.367Z,27.1
2023-03-05T13:11:19.141Z,26.8
2023-03-05T13:17:13.863Z,26.4
2023-03-05T13:23:06.977Z,25.3
2023-03-05T13:29:00.802Z,27
2023-03-05T13:35:03.993Z,27.1
2023-03-05T13:40:58.681Z,26.7
2023-03-05T13:46:52.294Z,26.4
2023-03-05T13:52:46.083Z,25.7
2023-03-05T13:58:42.157Z,25.3
2023-03-05T14:04:40.816Z,26.9
2023-03-05T14:10:33.664Z,26.9
2023-03-05T14:16:11.072Z,26.6
2023-03-05T14:21:34.085Z,26.4
2023-03-05T14:27:35.607Z,25.3
2023-03-05T14:33:28.974Z,26
2023-03-05T14:39:07.629Z,27
2023-03-05T14:44:45.995Z,26.9
2023-03-05T14:50:06.509Z,26.6
2023-03-05T14:55:43.666Z,26.3
2023-03-05T15:01:39.483Z,25.8
2023-03-05T15:07:32.305Z,25.1
2023-03-05T15:13:25.159Z,26.8
2023-03-05T15:19:18.520Z,26.9
2023-03-05T15:24:40.877Z,26.6
2023-03-05T15:30:18.971Z,26.4
2023-03-05T15:35:44.313Z,26
2023-03-05T15:41:05.814Z,24.9
2023-03-05T15:46:43.678Z,26.5
2023-03-05T15:52:23.030Z,26.9
2023-03-05T15:57:59.265Z,26.8
2023-03-05T16:03:36.618Z,26.4
2023-03-05T16:09:15.422Z,26.1
2023-03-05T16:14:52.201Z,24.9
2023-03-05T16:20:31.460Z,25.8
2023-03-05T16:26:08.738Z,26.8
2023-03-05T16:31:45.334Z,26.7
2023-03-05T16:37:07.949Z,26.4
2023-03-05T16:43:10.794Z,26.2
2023-03-05T16:48:33.062Z,25.8
2023-03-05T16:54:15.245Z,24.7
2023-03-05T16:59:59.751Z,25.8
2023-03-05T17:05:36.079Z,26.7
2023-03-05T17:11:14.956Z,26.6
2023-03-05T17:16:52.985Z,26.4
2023-03-05T17:22:31.944Z,26.1
2023-03-05T17:28:10.113Z,25.8
2023-03-05T17:33:48.461Z,24.8
2023-03-05T17:39:34.920Z,24.8
2023-03-05T17:45:28.227Z,26.5
2023-03-05T17:51:05.491Z,26.8
2023-03-05T17:56:59.262Z,26.6
2023-03-05T18:02:52.250Z,26.3
2023-03-05T18:08:30.018Z,26
2023-03-05T18:14:07.298Z,24.9
2023-03-05T18:20:03.891Z,25
2023-03-05T18:25:57.203Z,26.6
2023-03-05T18:31:48.717Z,26.8
2023-03-05T18:37:42.300Z,26.6
2023-03-05T18:43:24.898Z,26.3
2023-03-05T18:49:03.024Z,26
2023-03-05T18:54:56.416Z,24.8
2023-03-05T19:00:49.047Z,25.1
2023-03-05T19:06:42.484Z,26.6
2023-03-05T19:12:20.549Z,26.9
2023-03-05T19:17:59.514Z,25.6
2023-03-05T19:23:51.751Z,25
2023-03-05T19:29:43.938Z,24.4
2023-03-05T19:35:38.101Z,23.9
2023-03-05T19:41:30.925Z,24.3
2023-03-05T19:47:24.743Z,25.7
2023-03-05T19:53:20.894Z,26.8
2023-03-05T19:58:27.878Z,26.8
2023-03-05T20:04:22.206Z,25.3
2023-03-05T20:10:00.442Z,24.8
2023-03-05T20:15:54.083Z,24.1
2023-03-05T20:21:47.664Z,23.8
2023-03-05T20:27:45.598Z,24.5
2023-03-05T20:33:26.878Z,26.1
2023-03-05T20:39:21.495Z,26.6
2023-03-05T20:45:00.016Z,25.9
2023-03-05T20:50:38.029Z,24.9
2023-03-05T20:56:16.969Z,24.4
2023-03-05T21:01:40.124Z,23.9
2023-03-05T21:06:47.151Z,24.1
2023-03-05T21:12:26.046Z,24.8
2023-03-05T21:18:19.457Z,26.3
2023-03-05T21:23:59.239Z,26.7
2023-03-05T21:29:37.118Z,25.9
2023-03-05T21:35:33.163Z,24.8
2023-03-05T21:41:09.802Z,24.3
2023-03-05T21:47:03.681Z,23.8
2023-03-05T21:52:55.905Z,24.1
2023-03-05T21:58:47.852Z,25.3
2023-03-05T22:04:25.395Z,26.3
2023-03-05T22:10:02.889Z,25.9
2023-03-05T22:15:55.544Z,26.6
2023-03-05T22:21:33.536Z,26.8
2023-03-05T22:27:25.981Z,25.3
2023-03-05T22:33:03.100Z,24.8
2023-03-05T22:38:56.795Z,24.1
2023-03-05T22:44:18.974Z,23.8
2023-03-05T22:50:10.719Z,24.3
2023-03-05T22:56:03.197Z,25.9
2023-03-05T23:01:09.589Z,26.7
2023-03-05T23:07:02.982Z,26.6
2023-03-05T23:12:56.222Z,25.1
2023-03-05T23:18:18.168Z,24.7
2023-03-05T23:23:54.610Z,24.1
2023-03-05T23:29:32.290Z,23.8
2023-03-05T23:35:10.553Z,24.3
2023-03-05T23:40:47.656Z,25.9
2023-03-05T23:46:09.644Z,26.7
2023-03-05T23:52:03.173Z,26.6
2023-03-05T23:57:28.116Z,25.1
